Terminal Aerodrome Forecast
Issued by NWS

Home | Current Version | Previous Version | Text Only | Print | Product List | Glossary On
Versions: 1 2 3 4 5 6 7 8 9 10 11 12 13
000
FTUS42 KTBW 281124
TAFPIE
TAF
KPIE 281124Z 2812/2912 13005KT P6SM FEW010 SCT200
     FM281700 17007KT P6SM FEW250
     FM282000 21009KT P6SM FEW100
     FM290200 15004KT P6SM FEW035 FEW060=

USA.gov is the U.S. government's official web portal to all federal, state and local government web resources and services.